Plantation Key, Florida
Current Conditions -  °F | °C
As of 8:58 AM on Thursday 23 Oct 2014 (Local Time) from KHST Reporting Station
Clear Clear  
Wind Chill: 75°   Ceiling: Unl
Heat Index: 75°   Visibility: 10mi
Dew Point: 71°   Wind: 6mph
Humidity: 90%   Direction: 10°N
Pressure: 29.92"   Gusts: NA
Location:  25.0103°N, 80.5235°W
Report Text: KHST 231258Z AUTO 01005KT 10SM CLR 24/22 A2992 RMK AO2 RAE1251DZB1251 SLP135 P0001 T02370219
Loading
Personal Weather Stations






























Interactive Weather Map
Tropical Storm Tracking
New forecast layout! Learn more

10-Day Weather Forecast

Advertisements
Track Severe Weather on mobile